Time;durP1;ratioP1;P1;durP2;ratioP2;P2;SDS_P1;SDS_P2;PMS_P1;PMS_P2;Temp;Humidity;BMP_temperature;BMP_pressure;BME280_temperature;BME280_humidity;BME280_pressure;Samples;Min_cycle;Max_cycle;Signal;HPM_P1;HPM_P2
2023/05/09 00:00:04;;;;;;;;;;;16.50;99.90;;;;;;7336745;19;110661;-68
2023/05/09 00:02:33;;;;;;;;;;;16.50;99.90;;;;;;7336053;19;113867;-69
2023/05/09 00:05:01;;;;;;;;;;;16.50;99.90;;;;;;7343085;19;111037;-69
2023/05/09 00:07:28;;;;;;;;;;;16.40;99.90;;;;;;7339542;19;111514;-69
2023/05/09 00:09:55;;;;;;;;;;;16.40;99.90;;;;;;7339745;19;110087;-68
2023/05/09 00:12:22;;;;;;;;;;;16.40;99.90;;;;;;7338399;19;110851;-67
2023/05/09 00:14:50;;;;;;;;;;;16.40;99.90;;;;;;7335045;19;110233;-69
2023/05/09 00:17:17;;;;;;;;;;;16.40;99.90;;;;;;7335798;19;111423;-69
2023/05/09 00:19:44;;;;;;;;;;;16.40;99.90;;;;;;7334534;19;110944;-68
2023/05/09 00:22:11;;;;;;;;;;;16.40;99.90;;;;;;7336738;19;113013;-72
2023/05/09 00:24:38;;;;;;;;;;;16.40;99.90;;;;;;7331841;19;109462;-68
2023/05/09 00:27:05;;;;;;;;;;;16.40;99.90;;;;;;7342296;19;111223;-68
2023/05/09 00:29:32;;;;;;;;;;;16.40;99.90;;;;;;7338998;19;109732;-68
2023/05/09 00:31:59;;;;;;;;;;;16.40;99.90;;;;;;7336818;19;113360;-69
2023/05/09 00:34:26;;;;;;;;;;;16.40;99.90;;;;;;7338825;19;112137;-69
2023/05/09 00:36:53;;;;;;;;;;;16.30;99.90;;;;;;7334540;19;109691;-69
2023/05/09 00:39:21;;;;;;;;;;;16.40;99.90;;;;;;7336586;19;111250;-69
2023/05/09 00:41:48;;;;;;;;;;;16.40;99.90;;;;;;7333967;19;111194;-69
2023/05/09 00:44:15;;;;;;;;;;;16.40;99.90;;;;;;7334881;19;111335;-68
2023/05/09 00:46:42;;;;;;;;;;;16.40;99.90;;;;;;7340170;19;110429;-68
2023/05/09 00:49:11;;;;;;;;;;;16.30;99.90;;;;;;7331309;19;111609;-69
2023/05/09 00:51:38;;;;;;;;;;;16.30;99.90;;;;;;7331977;19;111571;-68
2023/05/09 00:54:08;;;;;;;;;;;16.30;99.90;;;;;;7333232;19;111970;-70
2023/05/09 00:56:35;;;;;;;;;;;16.30;99.90;;;;;;7336189;19;109363;-69
2023/05/09 00:59:02;;;;;;;;;;;16.30;99.90;;;;;;7335445;19;109877;-69
2023/05/09 01:01:29;;;;;;;;;;;16.30;99.90;;;;;;7338454;19;109721;-68
2023/05/09 01:03:57;;;;;;;;;;;16.20;99.90;;;;;;7335967;19;111005;-69
2023/05/09 01:06:42;;;;;;;;;;;16.20;99.90;;;;;;7336857;19;110284;-69
2023/05/09 01:09:23;;;;;;;;;;;16.20;99.90;;;;;;7340430;19;110421;-68
2023/05/09 01:12:02;;;;;;;;;;;16.20;99.90;;;;;;7337118;19;110993;-69
2023/05/09 01:14:48;;;;;;;;;;;16.20;99.90;;;;;;7336033;19;109564;-68
2023/05/09 01:17:30;;;;;;;;;;;16.20;99.90;;;;;;7333433;19;111374;-70
2023/05/09 01:19:57;;;;;;;;;;;16.20;99.90;;;;;;7336957;19;110802;-69
2023/05/09 01:22:28;;;;;;;;;;;16.10;99.90;;;;;;7334620;19;109729;-68
2023/05/09 01:24:55;;;;;;;;;;;16.10;99.90;;;;;;7336184;19;110328;-69
2023/05/09 01:27:43;;;;;;;;;;;16.10;99.90;;;;;;7337154;19;111164;-68
2023/05/09 01:30:12;;;;;;;;;;;16.00;99.90;;;;;;7335488;19;109639;-69
2023/05/09 01:32:41;;;;;;;;;;;16.00;99.90;;;;;;7338318;19;110047;-69
2023/05/09 01:35:10;;;;;;;;;;;16.00;99.90;;;;;;7336467;19;111535;-68
2023/05/09 01:37:39;;;;;;;;;;;16.00;99.90;;;;;;7332418;19;111096;-69
2023/05/09 01:40:07;;;;;;;;;;;16.00;99.90;;;;;;7331495;19;111205;-69
2023/05/09 01:42:39;;;;;;;;;;;16.00;99.90;;;;;;7337074;19;109820;-68
2023/05/09 01:45:08;;;;;;;;;;;16.00;99.90;;;;;;7335712;19;111085;-68
2023/05/09 01:47:36;;;;;;;;;;;15.90;99.90;;;;;;7333917;19;110701;-69
2023/05/09 01:50:04;;;;;;;;;;;15.90;99.90;;;;;;7334947;19;109376;-68
2023/05/09 01:52:36;;;;;;;;;;;16.00;99.90;;;;;;7333487;19;121790;-68
2023/05/09 01:55:04;;;;;;;;;;;16.00;99.90;;;;;;7335359;19;110319;-68
2023/05/09 01:57:31;;;;;;;;;;;15.90;99.90;;;;;;7338001;19;109553;-69
2023/05/09 02:00:00;;;;;;;;;;;15.90;99.90;;;;;;7332000;19;111247;-69
2023/05/09 02:02:27;;;;;;;;;;;15.90;99.90;;;;;;7333218;19;109810;-69
2023/05/09 02:04:55;;;;;;;;;;;15.90;99.90;;;;;;7334764;19;110147;-68
2023/05/09 02:07:23;;;;;;;;;;;15.90;99.90;;;;;;7331993;19;110189;-69
2023/05/09 02:09:52;;;;;;;;;;;15.90;99.90;;;;;;7337039;19;109431;-68
2023/05/09 02:12:19;;;;;;;;;;;15.90;99.90;;;;;;7333793;19;110407;-68
2023/05/09 02:14:46;;;;;;;;;;;15.90;99.90;;;;;;7333166;19;110349;-69
2023/05/09 02:17:15;;;;;;;;;;;15.90;99.90;;;;;;7341033;19;112506;-69
2023/05/09 02:19:43;;;;;;;;;;;15.80;99.90;;;;;;7333210;19;110740;-68
2023/05/09 02:22:10;;;;;;;;;;;15.90;99.90;;;;;;7336616;19;109626;-68
2023/05/09 02:24:37;;;;;;;;;;;15.90;99.90;;;;;;7335542;19;110856;-68
2023/05/09 02:27:05;;;;;;;;;;;15.80;99.90;;;;;;7333694;19;110393;-69
2023/05/09 02:29:39;;;;;;;;;;;15.80;99.90;;;;;;7335811;19;112088;-68
2023/05/09 02:32:27;;;;;;;;;;;15.80;99.90;;;;;;7332459;19;111858;-69
2023/05/09 02:34:54;;;;;;;;;;;15.80;99.90;;;;;;7333646;19;110065;-69
2023/05/09 02:37:22;;;;;;;;;;;15.80;99.90;;;;;;7337222;19;109784;-69
2023/05/09 02:39:49;;;;;;;;;;;15.80;99.90;;;;;;7341675;19;109746;-69
2023/05/09 02:42:24;;;;;;;;;;;15.80;99.90;;;;;;7328943;19;110337;-69
2023/05/09 02:44:51;;;;;;;;;;;15.80;99.90;;;;;;7332182;19;110685;-67
2023/05/09 02:47:19;;;;;;;;;;;15.80;99.90;;;;;;7328901;19;110677;-68
2023/05/09 02:49:46;;;;;;;;;;;15.80;99.90;;;;;;7334901;19;109511;-68
2023/05/09 02:52:13;;;;;;;;;;;15.80;99.90;;;;;;7333972;19;111630;-68
2023/05/09 02:54:40;;;;;;;;;;;15.80;99.90;;;;;;7333781;19;110214;-68
2023/05/09 02:57:07;;;;;;;;;;;15.80;99.90;;;;;;7334708;19;110822;-68
2023/05/09 02:59:34;;;;;;;;;;;15.70;99.90;;;;;;7339498;19;110978;-68
2023/05/09 03:02:01;;;;;;;;;;;15.70;99.90;;;;;;7334890;19;110317;-68
2023/05/09 03:04:29;;;;;;;;;;;15.70;99.90;;;;;;7335979;19;109636;-69
2023/05/09 03:06:56;;;;;;;;;;;15.70;99.90;;;;;;7338717;19;111483;-68
2023/05/09 03:09:23;;;;;;;;;;;15.60;99.90;;;;;;7342125;19;110632;-68
2023/05/09 03:11:50;;;;;;;;;;;15.60;99.90;;;;;;7341992;19;110123;-67
2023/05/09 03:14:17;;;;;;;;;;;15.60;99.90;;;;;;7340189;19;110968;-68
2023/05/09 03:16:44;;;;;;;;;;;15.60;99.90;;;;;;7339939;19;111247;-68
2023/05/09 03:19:11;;;;;;;;;;;15.60;99.90;;;;;;7338987;19;114060;-67
2023/05/09 03:21:38;;;;;;;;;;;15.60;99.90;;;;;;7344645;19;110626;-69
2023/05/09 03:24:06;;;;;;;;;;;15.70;99.90;;;;;;7338755;19;110250;-69
2023/05/09 03:26:36;;;;;;;;;;;15.60;99.90;;;;;;7338593;19;111229;-67
2023/05/09 03:29:03;;;;;;;;;;;15.60;99.90;;;;;;7340493;19;109378;-68
2023/05/09 03:31:30;;;;;;;;;;;15.70;99.90;;;;;;7340032;19;109941;-68
2023/05/09 03:33:57;;;;;;;;;;;15.70;99.90;;;;;;7340604;19;111004;-68
2023/05/09 03:36:25;;;;;;;;;;;15.60;99.90;;;;;;7337053;19;109458;-70
2023/05/09 03:38:52;;;;;;;;;;;15.70;99.90;;;;;;7334240;19;110163;-68
2023/05/09 03:41:19;;;;;;;;;;;15.60;99.90;;;;;;7335851;19;110964;-69
2023/05/09 03:43:46;;;;;;;;;;;15.70;99.90;;;;;;7342493;19;109980;-67
2023/05/09 03:46:13;;;;;;;;;;;15.70;99.90;;;;;;7332896;19;110734;-68
2023/05/09 03:48:40;;;;;;;;;;;15.60;99.90;;;;;;7336781;19;110099;-67
2023/05/09 03:51:07;;;;;;;;;;;15.60;99.90;;;;;;7334723;19;110806;-68
2023/05/09 03:53:34;;;;;;;;;;;15.60;99.90;;;;;;7337497;19;111783;-67
2023/05/09 03:56:01;;;;;;;;;;;15.70;99.90;;;;;;7339462;19;114160;-67
2023/05/09 03:58:28;;;;;;;;;;;15.70;99.90;;;;;;7335950;19;110348;-67
2023/05/09 04:00:55;;;;;;;;;;;15.70;99.90;;;;;;7339698;19;111860;-67
2023/05/09 04:03:22;;;;;;;;;;;15.70;99.90;;;;;;7334888;19;109588;-67
2023/05/09 04:05:49;;;;;;;;;;;15.70;99.90;;;;;;7340916;19;109563;-67
2023/05/09 04:08:16;;;;;;;;;;;15.70;99.90;;;;;;7334068;19;114264;-69
2023/05/09 04:10:44;;;;;;;;;;;15.70;99.90;;;;;;7333917;19;110472;-67
2023/05/09 04:13:10;;;;;;;;;;;15.70;99.90;;;;;;7338135;19;110933;-68
2023/05/09 04:15:38;;;;;;;;;;;15.70;99.90;;;;;;7339029;19;109846;-67
2023/05/09 04:18:05;;;;;;;;;;;15.70;99.90;;;;;;7334314;19;109969;-68
2023/05/09 04:20:32;;;;;;;;;;;15.70;99.90;;;;;;7339180;19;111025;-68
2023/05/09 04:22:59;;;;;;;;;;;15.70;99.90;;;;;;7337099;19;110436;-68
2023/05/09 04:25:26;;;;;;;;;;;15.70;99.90;;;;;;7339228;19;110335;-68
2023/05/09 04:27:53;;;;;;;;;;;15.70;99.90;;;;;;7342595;19;110611;-68
2023/05/09 04:30:21;;;;;;;;;;;15.70;99.90;;;;;;7337741;19;110401;-68
2023/05/09 04:32:48;;;;;;;;;;;15.80;99.90;;;;;;7336617;19;110133;-67
2023/05/09 04:35:15;;;;;;;;;;;15.80;99.90;;;;;;7336263;19;109797;-67
2023/05/09 04:37:46;;;;;;;;;;;15.80;99.90;;;;;;7336547;19;109957;-67
2023/05/09 04:40:13;;;;;;;;;;;15.80;99.90;;;;;;7337468;19;110409;-68
2023/05/09 04:42:41;;;;;;;;;;;15.90;99.90;;;;;;7335446;19;109561;-68
2023/05/09 04:45:10;;;;;;;;;;;15.90;99.90;;;;;;7334124;19;109710;-74
2023/05/09 04:47:37;;;;;;;;;;;15.90;99.90;;;;;;7337581;19;110093;-74
2023/05/09 04:50:04;;;;;;;;;;;15.90;99.90;;;;;;7342762;19;109458;-72
2023/05/09 04:52:32;;;;;;;;;;;15.90;99.90;;;;;;7336339;19;110088;-73
2023/05/09 04:54:59;;;;;;;;;;;15.90;99.90;;;;;;7336562;19;110489;-74
2023/05/09 04:57:26;;;;;;;;;;;15.90;99.90;;;;;;7338522;19;110162;-74
2023/05/09 04:59:53;;;;;;;;;;;15.90;99.90;;;;;;7334728;19;110332;-68
2023/05/09 05:02:21;;;;;;;;;;;15.90;99.90;;;;;;7337518;19;110522;-68
2023/05/09 05:04:48;;;;;;;;;;;15.90;99.90;;;;;;7337596;19;109972;-70
2023/05/09 05:07:15;;;;;;;;;;;16.00;99.90;;;;;;7333940;19;110179;-70
2023/05/09 05:09:42;;;;;;;;;;;16.00;99.90;;;;;;7342192;19;110130;-69
2023/05/09 05:12:09;;;;;;;;;;;16.00;99.90;;;;;;7336201;19;111121;-68
2023/05/09 05:14:36;;;;;;;;;;;16.00;99.90;;;;;;7335685;19;109803;-67
2023/05/09 05:17:03;;;;;;;;;;;16.00;99.90;;;;;;7334654;19;112526;-67
2023/05/09 05:19:30;;;;;;;;;;;16.10;99.90;;;;;;7335422;19;110151;-68
2023/05/09 05:21:58;;;;;;;;;;;16.00;99.90;;;;;;7332501;19;109765;-67
2023/05/09 05:24:25;;;;;;;;;;;16.10;99.90;;;;;;7334599;19;109591;-67
2023/05/09 05:26:52;;;;;;;;;;;16.10;99.90;;;;;;7335264;19;110607;-67
2023/05/09 05:29:19;;;;;;;;;;;16.00;99.90;;;;;;7333413;19;110144;-68
2023/05/09 05:31:46;;;;;;;;;;;16.00;99.90;;;;;;7340326;19;110977;-68
2023/05/09 05:34:15;;;;;;;;;;;16.00;99.90;;;;;;7333708;19;111137;-72
2023/05/09 05:36:42;;;;;;;;;;;16.00;99.90;;;;;;7334063;19;112351;-76
2023/05/09 05:39:09;;;;;;;;;;;16.00;99.90;;;;;;7335025;19;112724;-71
2023/05/09 05:41:36;;;;;;;;;;;16.00;99.90;;;;;;7334954;19;109576;-72
2023/05/09 05:44:04;;;;;;;;;;;16.00;99.90;;;;;;7333782;19;109397;-73
2023/05/09 05:46:31;;;;;;;;;;;16.10;99.90;;;;;;7334888;19;110145;-72
2023/05/09 05:48:58;;;;;;;;;;;16.10;99.90;;;;;;7331177;19;111840;-70
2023/05/09 05:51:24;;;;;;;;;;;16.10;99.90;;;;;;7334392;19;110328;-74
2023/05/09 05:53:51;;;;;;;;;;;16.10;99.90;;;;;;7337898;19;113253;-71
2023/05/09 05:56:19;;;;;;;;;;;16.10;99.90;;;;;;7335332;19;109373;-71
2023/05/09 05:58:46;;;;;;;;;;;16.20;99.90;;;;;;7332832;19;109898;-73
2023/05/09 06:01:13;;;;;;;;;;;16.20;99.90;;;;;;7335822;19;110038;-71
2023/05/09 06:03:40;;;;;;;;;;;16.20;99.90;;;;;;7334526;19;111034;-71
2023/05/09 06:06:07;;;;;;;;;;;16.30;99.90;;;;;;7334050;19;111431;-71
2023/05/09 06:08:34;;;;;;;;;;;16.30;99.90;;;;;;7334143;19;111221;-72
2023/05/09 06:11:01;;;;;;;;;;;16.40;99.90;;;;;;7333096;19;111589;-85
2023/05/09 06:13:28;;;;;;;;;;;16.40;99.90;;;;;;7333691;19;111667;-85
2023/05/09 06:15:56;;;;;;;;;;;16.40;99.90;;;;;;7334914;19;110752;-85
2023/05/09 06:18:38;;;;;;;;;;;16.40;99.90;;;;;;7330540;19;111358;-86
2023/05/09 06:21:06;;;;;;;;;;;16.50;99.90;;;;;;7332340;19;110328;-85
2023/05/09 06:23:35;;;;;;;;;;;16.50;99.90;;;;;;7330913;19;110568;-86
2023/05/09 06:26:06;;;;;;;;;;;16.50;99.90;;;;;;7333285;19;111162;-85
2023/05/09 06:28:33;;;;;;;;;;;16.60;99.90;;;;;;7332085;19;110321;-84
2023/05/09 06:31:00;;;;;;;;;;;16.60;99.90;;;;;;7330499;19;109945;-67
2023/05/09 06:33:27;;;;;;;;;;;16.60;99.90;;;;;;7331877;19;110089;-67
2023/05/09 06:35:54;;;;;;;;;;;16.60;99.90;;;;;;7334558;19;109753;-68
2023/05/09 06:38:21;;;;;;;;;;;16.60;99.90;;;;;;7338825;19;114035;-68
2023/05/09 06:40:48;;;;;;;;;;;16.60;99.90;;;;;;7331525;19;110198;-68
2023/05/09 06:43:15;;;;;;;;;;;16.70;99.90;;;;;;7333615;19;110186;-67
2023/05/09 06:45:43;;;;;;;;;;;16.70;99.90;;;;;;7331961;19;110116;-68
2023/05/09 06:48:11;;;;;;;;;;;16.70;99.90;;;;;;7330921;19;110870;-68
2023/05/09 06:50:38;;;;;;;;;;;16.80;99.90;;;;;;7331679;19;111429;-68
2023/05/09 06:53:05;;;;;;;;;;;16.80;99.90;;;;;;7329749;19;111253;-68
2023/05/09 06:55:32;;;;;;;;;;;16.80;99.90;;;;;;7333893;19;109881;-68
2023/05/09 06:57:59;;;;;;;;;;;16.90;99.90;;;;;;7338631;19;109460;-68
2023/05/09 07:00:26;;;;;;;;;;;16.90;99.90;;;;;;7333916;19;113734;-68
2023/05/09 07:02:53;;;;;;;;;;;16.90;99.90;;;;;;7333281;19;109706;-68
2023/05/09 07:05:20;;;;;;;;;;;16.90;99.90;;;;;;7328813;19;111587;-69
2023/05/09 07:07:47;;;;;;;;;;;16.90;99.90;;;;;;7331908;19;110378;-69
2023/05/09 07:10:14;;;;;;;;;;;16.90;99.90;;;;;;7330715;19;110541;-69
2023/05/09 07:12:41;;;;;;;;;;;16.90;99.90;;;;;;7331167;19;112674;-68
2023/05/09 07:15:09;;;;;;;;;;;17.00;99.90;;;;;;7333685;19;111680;-67
2023/05/09 07:17:37;;;;;;;;;;;16.90;99.90;;;;;;7333360;19;109486;-68
2023/05/09 07:20:04;;;;;;;;;;;16.90;99.90;;;;;;7333850;19;114716;-67
2023/05/09 07:22:31;;;;;;;;;;;17.00;99.90;;;;;;7334076;19;110291;-65
2023/05/09 07:25:02;;;;;;;;;;;16.90;99.90;;;;;;7323929;19;111685;-65
2023/05/09 07:27:29;;;;;;;;;;;17.00;99.90;;;;;;7330885;19;109680;-65
2023/05/09 07:29:56;;;;;;;;;;;17.10;99.90;;;;;;7331699;19;110720;-65
2023/05/09 07:32:24;;;;;;;;;;;17.10;99.90;;;;;;7329549;19;110148;-65
2023/05/09 07:34:51;;;;;;;;;;;17.10;99.90;;;;;;7329609;19;110117;-65
2023/05/09 07:37:18;;;;;;;;;;;17.10;99.90;;;;;;7333670;19;109521;-65
2023/05/09 07:39:46;;;;;;;;;;;17.20;99.90;;;;;;7331294;19;112440;-65
2023/05/09 07:42:13;;;;;;;;;;;17.20;99.90;;;;;;7338871;19;109382;-65
2023/05/09 07:44:40;;;;;;;;;;;17.20;99.90;;;;;;7330246;19;111654;-65
2023/05/09 07:47:07;;;;;;;;;;;17.30;99.90;;;;;;7331762;19;109555;-65
2023/05/09 07:49:35;;;;;;;;;;;17.30;99.90;;;;;;7329769;19;111561;-64
2023/05/09 07:52:02;;;;;;;;;;;17.30;99.90;;;;;;7333190;19;110676;-65
2023/05/09 07:54:29;;;;;;;;;;;17.30;99.90;;;;;;7340548;19;109627;-65
2023/05/09 07:56:56;;;;;;;;;;;17.40;99.90;;;;;;7338833;19;110435;-65
2023/05/09 07:59:23;;;;;;;;;;;17.40;99.90;;;;;;7338670;19;111219;-65
2023/05/09 08:01:50;;;;;;;;;;;17.50;99.90;;;;;;7338430;19;111250;-68
2023/05/09 08:04:17;;;;;;;;;;;17.50;99.90;;;;;;7340596;19;110030;-65
2023/05/09 08:06:45;;;;;;;;;;;17.50;99.90;;;;;;7334752;19;109931;-65
2023/05/09 08:09:12;;;;;;;;;;;17.50;99.90;;;;;;7337901;19;109749;-66
2023/05/09 08:11:39;;;;;;;;;;;17.50;99.90;;;;;;7340379;19;110055;-66
2023/05/09 08:14:06;;;;;;;;;;;17.60;99.90;;;;;;7338408;19;110212;-66
2023/05/09 08:16:33;;;;;;;;;;;17.60;99.90;;;;;;7336851;19;110042;-66
2023/05/09 08:19:00;;;;;;;;;;;17.80;99.90;;;;;;7336371;19;110850;-66
2023/05/09 08:21:28;;;;;;;;;;;17.80;99.90;;;;;;7338773;19;109519;-66
2023/05/09 08:23:55;;;;;;;;;;;17.80;99.90;;;;;;7335128;19;110011;-66
2023/05/09 08:26:22;;;;;;;;;;;17.80;99.90;;;;;;7343181;19;111419;-66
2023/05/09 08:28:49;;;;;;;;;;;17.90;99.90;;;;;;7335782;19;110076;-66
2023/05/09 08:31:16;;;;;;;;;;;18.00;99.90;;;;;;7335090;19;112812;-66
2023/05/09 08:33:43;;;;;;;;;;;18.00;99.90;;;;;;7335826;19;110927;-66
2023/05/09 08:36:10;;;;;;;;;;;18.00;99.90;;;;;;7331087;19;110052;-66
2023/05/09 08:38:39;;;;;;;;;;;18.00;99.90;;;;;;7333860;19;112207;-66
2023/05/09 08:41:06;;;;;;;;;;;18.00;99.90;;;;;;7333543;19;109791;-66
2023/05/09 08:43:34;;;;;;;;;;;18.00;99.90;;;;;;7338236;19;109918;-66
2023/05/09 08:46:08;;;;;;;;;;;18.00;99.90;;;;;;7336852;19;111728;-67
2023/05/09 08:48:38;;;;;;;;;;;18.00;99.90;;;;;;7343826;19;109685;-66
2023/05/09 08:51:05;;;;;;;;;;;18.00;99.90;;;;;;7336147;19;111409;-66
2023/05/09 08:53:33;;;;;;;;;;;18.00;99.90;;;;;;7339115;19;110169;-66
2023/05/09 08:56:02;;;;;;;;;;;18.10;99.90;;;;;;7336888;19;110442;-66
2023/05/09 08:58:29;;;;;;;;;;;18.00;99.90;;;;;;7336004;19;111527;-66
2023/05/09 09:00:57;;;;;;;;;;;18.00;99.90;;;;;;7337152;19;109861;-66
2023/05/09 09:03:25;;;;;;;;;;;18.00;99.90;;;;;;7338028;19;109643;-66
2023/05/09 09:05:53;;;;;;;;;;;18.00;99.90;;;;;;7332606;19;110775;-66
2023/05/09 09:08:21;;;;;;;;;;;18.00;99.90;;;;;;7340621;19;109344;-67
2023/05/09 09:10:48;;;;;;;;;;;17.90;99.90;;;;;;7337098;19;110700;-66
2023/05/09 09:13:16;;;;;;;;;;;17.90;99.90;;;;;;7337510;19;109481;-66
2023/05/09 09:15:45;;;;;;;;;;;17.90;99.90;;;;;;7333817;19;110473;-66
2023/05/09 09:18:15;;;;;;;;;;;17.90;99.90;;;;;;7335655;19;111056;-66
2023/05/09 09:20:47;;;;;;;;;;;17.90;99.90;;;;;;7334715;19;109289;-65
2023/05/09 09:23:17;;;;;;;;;;;17.90;99.90;;;;;;7331706;19;111410;-66
2023/05/09 09:25:45;;;;;;;;;;;17.80;99.90;;;;;;7335477;19;112067;-68
2023/05/09 09:28:12;;;;;;;;;;;17.80;99.90;;;;;;7335812;19;109602;-67
2023/05/09 09:30:42;;;;;;;;;;;17.80;99.90;;;;;;7341353;19;109519;-66
2023/05/09 09:33:17;;;;;;;;;;;17.80;99.90;;;;;;7335058;19;109630;-67
2023/05/09 09:35:44;;;;;;;;;;;17.80;99.90;;;;;;7337825;19;109911;-67
2023/05/09 09:38:11;;;;;;;;;;;17.80;99.90;;;;;;7336871;19;110280;-66
2023/05/09 09:40:39;;;;;;;;;;;17.90;99.90;;;;;;7337456;19;109717;-66
2023/05/09 09:43:06;;;;;;;;;;;17.90;99.90;;;;;;7335071;19;109944;-66
2023/05/09 09:45:35;;;;;;;;;;;17.90;99.90;;;;;;7334863;19;110647;-66
2023/05/09 09:48:04;;;;;;;;;;;17.90;99.90;;;;;;7336135;19;109625;-67
2023/05/09 09:50:32;;;;;;;;;;;17.90;99.90;;;;;;7335339;19;110040;-66
2023/05/09 09:53:02;;;;;;;;;;;17.90;99.90;;;;;;7341388;19;110324;-66
2023/05/09 09:55:30;;;;;;;;;;;17.90;99.90;;;;;;7339777;19;109391;-66
2023/05/09 09:57:58;;;;;;;;;;;17.90;99.90;;;;;;7335930;19;111157;-66
2023/05/09 10:00:26;;;;;;;;;;;17.80;99.90;;;;;;7333328;19;109418;-66
2023/05/09 10:02:54;;;;;;;;;;;17.80;99.90;;;;;;7338246;19;109664;-66
2023/05/09 10:05:26;;;;;;;;;;;17.80;99.90;;;;;;7337406;19;111212;-66
2023/05/09 10:07:55;;;;;;;;;;;17.80;99.90;;;;;;7336600;19;110722;-66
2023/05/09 10:10:24;;;;;;;;;;;17.80;99.90;;;;;;7332721;19;109341;-66
2023/05/09 10:12:53;;;;;;;;;;;17.80;99.90;;;;;;7336036;19;111605;-66
2023/05/09 10:15:20;;;;;;;;;;;17.80;99.90;;;;;;7337947;19;109895;-66
2023/05/09 10:17:53;;;;;;;;;;;17.80;99.90;;;;;;7332580;19;110348;-67
2023/05/09 10:20:21;;;;;;;;;;;17.80;99.90;;;;;;7333068;19;109823;-66
2023/05/09 10:22:49;;;;;;;;;;;17.90;99.90;;;;;;7335556;19;109567;-66
2023/05/09 10:25:18;;;;;;;;;;;17.90;99.90;;;;;;7333370;19;111342;-66
2023/05/09 10:27:46;;;;;;;;;;;17.90;99.90;;;;;;7335346;19;109528;-67
2023/05/09 10:30:17;;;;;;;;;;;17.90;99.90;;;;;;7334079;19;110134;-66
2023/05/09 10:32:51;;;;;;;;;;;17.80;99.90;;;;;;7333601;19;112181;-67
2023/05/09 10:35:20;;;;;;;;;;;17.80;99.90;;;;;;7334316;19;109821;-66
2023/05/09 10:37:48;;;;;;;;;;;17.70;99.90;;;;;;7339774;19;109492;-66
2023/05/09 10:40:16;;;;;;;;;;;17.80;99.90;;;;;;7334736;19;111767;-66
2023/05/09 10:42:43;;;;;;;;;;;17.80;99.90;;;;;;7338228;19;110701;-66
2023/05/09 10:45:11;;;;;;;;;;;17.90;99.90;;;;;;7335041;19;111165;-66
2023/05/09 10:47:39;;;;;;;;;;;17.80;99.90;;;;;;7336901;19;109440;-68
2023/05/09 10:50:07;;;;;;;;;;;17.80;99.90;;;;;;7335997;19;110216;-66
2023/05/09 10:52:54;;;;;;;;;;;17.80;99.90;;;;;;7335847;19;111462;-67
2023/05/09 10:55:21;;;;;;;;;;;17.80;99.90;;;;;;7334392;19;110023;-66
2023/05/09 10:57:52;;;;;;;;;;;17.70;99.90;;;;;;7335646;19;109250;-66
2023/05/09 11:00:23;;;;;;;;;;;17.70;99.90;;;;;;7337108;19;110826;-66
2023/05/09 11:03:09;;;;;;;;;;;17.60;99.90;;;;;;7337111;19;110471;-66
2023/05/09 11:05:39;;;;;;;;;;;17.60;99.90;;;;;;7332975;19;110574;-66
2023/05/09 11:08:19;;;;;;;;;;;17.70;99.90;;;;;;7336467;19;109565;-66
2023/05/09 11:10:46;;;;;;;;;;;17.70;99.90;;;;;;7334226;19;111697;-66
2023/05/09 11:13:17;;;;;;;;;;;17.80;99.90;;;;;;7331035;19;110706;-66
2023/05/09 11:16:02;;;;;;;;;;;17.70;99.90;;;;;;7331840;19;109937;-66
2023/05/09 11:18:31;;;;;;;;;;;17.70;99.90;;;;;;7333552;19;110445;-66
2023/05/09 11:20:58;;;;;;;;;;;17.70;99.90;;;;;;7339088;19;110485;-66
2023/05/09 11:23:26;;;;;;;;;;;17.70;99.90;;;;;;7332605;19;110661;-66
2023/05/09 11:26:02;;;;;;;;;;;17.70;99.90;;;;;;7334714;19;110219;-66
2023/05/09 11:28:31;;;;;;;;;;;17.70;99.90;;;;;;7341901;19;109137;-66
2023/05/09 11:31:27;;;;;;;;;;;17.70;99.90;;;;;;7337542;19;109700;-66
2023/05/09 11:34:01;;;;;;;;;;;17.70;99.90;;;;;;7339193;19;110696;-66
2023/05/09 11:36:30;;;;;;;;;;;17.70;99.90;;;;;;7339865;19;109311;-66
2023/05/09 11:39:02;;;;;;;;;;;17.70;99.90;;;;;;7340573;19;110395;-66
2023/05/09 11:41:30;;;;;;;;;;;17.60;99.90;;;;;;7338651;19;110017;-66
2023/05/09 11:43:59;;;;;;;;;;;17.60;99.90;;;;;;7345010;19;109682;-65
2023/05/09 11:46:26;;;;;;;;;;;17.70;99.90;;;;;;7338838;19;110547;-66
2023/05/09 11:48:53;;;;;;;;;;;17.70;99.90;;;;;;7339981;19;113546;-66
2023/05/09 11:51:20;;;;;;;;;;;17.70;99.90;;;;;;7338885;19;109616;-66
2023/05/09 11:53:52;;;;;;;;;;;17.70;99.90;;;;;;7339901;19;111321;-66
2023/05/09 11:56:21;;;;;;;;;;;17.70;99.90;;;;;;7338042;19;109471;-66
2023/05/09 11:58:50;;;;;;;;;;;17.70;99.90;;;;;;7340757;19;109737;-66
2023/05/09 12:01:17;;;;;;;;;;;17.80;99.90;;;;;;7337660;19;110823;-66
2023/05/09 12:03:44;;;;;;;;;;;17.80;99.90;;;;;;7335696;19;109603;-66
2023/05/09 12:06:16;;;;;;;;;;;17.80;99.90;;;;;;7341400;19;109755;-69
2023/05/09 12:08:46;;;;;;;;;;;17.70;99.90;;;;;;7338868;19;110399;-71
2023/05/09 12:11:14;;;;;;;;;;;17.70;99.90;;;;;;7341024;19;109335;-70
2023/05/09 12:13:45;;;;;;;;;;;17.80;99.90;;;;;;7339890;19;110215;-71
2023/05/09 12:16:13;;;;;;;;;;;17.80;99.90;;;;;;7338272;19;109527;-69
2023/05/09 12:18:50;;;;;;;;;;;17.80;99.90;;;;;;7338459;19;109998;-71
2023/05/09 12:21:17;;;;;;;;;;;17.80;99.90;;;;;;7339378;19;110168;-67
2023/05/09 12:23:46;;;;;;;;;;;17.70;99.90;;;;;;7337794;19;109606;-66
2023/05/09 12:26:20;;;;;;;;;;;17.70;99.90;;;;;;7346911;19;110368;-81
2023/05/09 12:28:48;;;;;;;;;;;17.70;99.90;;;;;;7343081;19;110943;-67
2023/05/09 12:31:15;;;;;;;;;;;17.70;99.90;;;;;;7339407;19;109751;-66
2023/05/09 12:33:43;;;;;;;;;;;17.70;99.90;;;;;;7340889;19;110482;-69
2023/05/09 12:36:11;;;;;;;;;;;17.70;99.90;;;;;;7333427;19;109696;-66
2023/05/09 12:38:38;;;;;;;;;;;17.70;99.90;;;;;;7337695;19;109788;-67
2023/05/09 12:41:07;;;;;;;;;;;17.70;99.90;;;;;;7336497;19;111303;-66
2023/05/09 12:43:54;;;;;;;;;;;17.70;99.90;;;;;;7338792;19;109687;-66
2023/05/09 12:46:21;;;;;;;;;;;17.80;99.90;;;;;;7335099;19;110013;-66
2023/05/09 12:48:49;;;;;;;;;;;17.80;99.90;;;;;;7339467;19;110276;-66
2023/05/09 12:51:19;;;;;;;;;;;17.70;99.90;;;;;;7344164;19;109808;-66
2023/05/09 12:53:47;;;;;;;;;;;17.80;99.90;;;;;;7340435;19;110103;-66
2023/05/09 12:56:18;;;;;;;;;;;17.80;99.90;;;;;;7337680;19;109629;-66
2023/05/09 12:58:48;;;;;;;;;;;17.80;99.90;;;;;;7337571;19;109299;-67
2023/05/09 13:01:15;;;;;;;;;;;17.80;99.90;;;;;;7336735;19;111275;-67
2023/05/09 13:03:43;;;;;;;;;;;17.80;99.90;;;;;;7338646;19;109673;-66
2023/05/09 13:06:12;;;;;;;;;;;17.80;99.90;;;;;;7335054;19;110217;-66
2023/05/09 13:08:39;;;;;;;;;;;17.80;99.90;;;;;;7337263;19;109980;-60
2023/05/09 13:11:11;;;;;;;;;;;17.80;99.90;;;;;;7338734;19;110147;-64
2023/05/09 13:13:42;;;;;;;;;;;17.80;99.90;;;;;;7339057;19;110160;-64
2023/05/09 13:16:09;;;;;;;;;;;17.80;99.90;;;;;;7334138;19;110803;-64
2023/05/09 13:18:40;;;;;;;;;;;17.80;99.90;;;;;;7338896;19;109946;-63
2023/05/09 13:21:07;;;;;;;;;;;17.80;99.90;;;;;;7333651;19;111271;-64
2023/05/09 13:23:34;;;;;;;;;;;17.80;99.90;;;;;;7338064;19;110626;-64
2023/05/09 13:26:01;;;;;;;;;;;17.80;99.90;;;;;;7337119;19;109977;-64
2023/05/09 13:28:29;;;;;;;;;;;17.70;99.90;;;;;;7333963;19;112983;-64
2023/05/09 13:30:56;;;;;;;;;;;17.70;99.90;;;;;;7336613;19;109718;-64
2023/05/09 13:33:23;;;;;;;;;;;17.60;99.90;;;;;;7338595;19;109742;-64
2023/05/09 13:35:52;;;;;;;;;;;17.60;99.90;;;;;;7337409;19;109663;-64
2023/05/09 13:38:19;;;;;;;;;;;17.60;99.90;;;;;;7333928;19;109707;-64
2023/05/09 13:40:46;;;;;;;;;;;17.60;99.90;;;;;;7335116;19;112982;-63
2023/05/09 13:43:13;;;;;;;;;;;17.70;99.90;;;;;;7334754;19;109429;-64
2023/05/09 13:45:41;;;;;;;;;;;17.60;99.90;;;;;;7335433;19;110237;-63
2023/05/09 13:48:08;;;;;;;;;;;17.70;99.90;;;;;;7336139;19;110144;-63
2023/05/09 13:50:35;;;;;;;;;;;17.60;99.90;;;;;;7334984;19;109726;-63
2023/05/09 13:53:02;;;;;;;;;;;17.70;99.90;;;;;;7336349;19;110531;-63
2023/05/09 13:55:29;;;;;;;;;;;17.70;99.90;;;;;;7339255;19;111226;-64
2023/05/09 13:57:56;;;;;;;;;;;17.70;99.90;;;;;;7334873;19;113280;-63
2023/05/09 14:00:25;;;;;;;;;;;17.80;99.90;;;;;;7332518;19;110765;-63
2023/05/09 14:02:52;;;;;;;;;;;17.70;99.90;;;;;;7336941;19;109572;-64
2023/05/09 14:05:19;;;;;;;;;;;17.70;99.90;;;;;;7335501;19;110473;-64
2023/05/09 14:07:46;;;;;;;;;;;17.70;99.90;;;;;;7333637;19;111632;-63
2023/05/09 14:10:13;;;;;;;;;;;17.60;99.90;;;;;;7331992;19;111112;-63